createdAt,value
2023-02-15T00:02:21.311Z,51.51
2023-02-15T00:07:25.748Z,51.79
2023-02-15T00:12:28.704Z,52.04
2023-02-15T00:17:31.763Z,52.42
2023-02-15T00:22:36.209Z,52.40
2023-02-15T00:27:39.157Z,52.63
2023-02-15T00:32:42.112Z,52.86
2023-02-15T00:37:46.422Z,52.88
2023-02-15T00:42:49.399Z,53.13
2023-02-15T00:47:52.354Z,52.68
2023-02-15T00:52:56.691Z,52.77
2023-02-15T00:57:59.746Z,52.60
2023-02-15T01:03:02.741Z,52.83
2023-02-15T01:08:07.298Z,53.18
2023-02-15T01:13:10.236Z,53.54
2023-02-15T01:18:13.935Z,53.05
2023-02-15T01:23:18.441Z,53.12
2023-02-15T01:28:21.408Z,53.19
2023-02-15T01:33:24.355Z,53.20
2023-02-15T01:38:28.804Z,53.01
2023-02-15T01:43:41.447Z,53.50
2023-02-15T01:48:46.519Z,53.32
2023-02-15T01:53:53.040Z,53.71
2023-02-15T01:58:59.088Z,53.77
2023-02-15T02:04:04.609Z,54.01
2023-02-15T02:09:08.982Z,54.15
2023-02-15T02:14:12.220Z,54.18
2023-02-15T02:19:34.636Z,54.20
2023-02-15T02:24:56.610Z,54.12
2023-02-15T02:30:09.160Z,54.31
2023-02-15T02:35:16.779Z,54.83
2023-02-15T02:40:23.471Z,55.11
2023-02-15T02:45:28.342Z,54.46
2023-02-15T02:50:32.970Z,54.45
2023-02-15T02:55:37.863Z,54.98
2023-02-15T03:00:41.789Z,54.44
2023-02-15T03:05:48.750Z,55.00
2023-02-15T03:10:55.512Z,55.24
2023-02-15T03:16:16.499Z,55.43
2023-02-15T03:21:24.152Z,54.77
2023-02-15T03:26:28.321Z,55.11
2023-02-15T03:31:32.618Z,55.52
2023-02-15T03:36:39.760Z,54.91
2023-02-15T03:41:47.266Z,55.14
2023-02-15T03:46:53.727Z,56.03
2023-02-15T03:51:59.156Z,55.69
2023-02-15T03:57:16.819Z,56.26
2023-02-15T04:02:23.771Z,56.46
2023-02-15T04:07:28.162Z,56.09
2023-02-15T04:12:31.037Z,56.57
2023-02-15T04:17:33.894Z,56.08
2023-02-15T04:22:55.738Z,56.60
2023-02-15T04:27:58.708Z,56.19
2023-02-15T04:33:01.576Z,56.30
2023-02-15T04:38:05.889Z,56.38
2023-02-15T04:43:08.732Z,56.56
2023-02-15T04:48:11.579Z,56.50
2023-02-15T04:53:17.642Z,56.59
2023-02-15T04:58:20.478Z,57.18
2023-02-15T05:03:23.494Z,56.59
2023-02-15T05:08:27.803Z,57.62
2023-02-15T05:13:30.627Z,57.29
2023-02-15T05:18:33.542Z,57.33
2023-02-15T05:23:37.989Z,56.41
2023-02-15T05:28:41.300Z,56.75
2023-02-15T05:33:44.661Z,56.71
2023-02-15T05:38:49.008Z,56.87
2023-02-15T05:43:51.994Z,57.07
2023-02-15T05:48:55.001Z,56.85
2023-02-15T05:53:59.351Z,57.78
2023-02-15T05:59:02.414Z,57.09
2023-02-15T06:04:05.424Z,57.13
2023-02-15T06:09:09.871Z,57.16
2023-02-15T06:14:12.837Z,57.02
2023-02-15T06:19:15.846Z,57.26
2023-02-15T06:24:20.187Z,56.73
2023-02-15T06:29:23.133Z,57.56
2023-02-15T06:34:26.026Z,58.06
2023-02-15T06:39:30.323Z,58.23
2023-02-15T06:44:33.142Z,57.63
2023-02-15T06:49:35.977Z,58.09
2023-02-15T06:54:40.282Z,58.18
2023-02-15T06:59:43.201Z,57.42
2023-02-15T07:04:46.073Z,58.30
2023-02-15T07:09:50.385Z,58.29
2023-02-15T07:14:53.263Z,58.34
2023-02-15T07:19:56.198Z,58.36
2023-02-15T07:25:00.466Z,58.48
2023-02-15T07:30:03.439Z,58.47
2023-02-15T07:35:06.476Z,58.30
2023-02-15T07:40:11.173Z,58.13
2023-02-15T07:45:14.024Z,57.93
2023-02-15T07:50:17.098Z,58.56
2023-02-15T07:55:21.431Z,58.83
2023-02-15T08:00:26.065Z,58.58
2023-02-15T08:05:30.715Z,58.48
2023-02-15T08:10:52.477Z,58.16
2023-02-15T08:15:55.388Z,58.25
2023-02-15T08:20:59.853Z,57.55
2023-02-15T08:26:05.456Z,57.75
2023-02-15T08:31:08.986Z,56.72
2023-02-15T08:36:13.205Z,55.99
2023-02-15T08:41:20.024Z,56.13
2023-02-15T08:46:23.975Z,55.24
2023-02-15T08:51:27.740Z,54.99
2023-02-15T08:56:34.442Z,54.21
2023-02-15T09:01:37.464Z,53.17
2023-02-15T09:06:40.984Z,50.14
2023-02-15T09:11:46.291Z,48.18
2023-02-15T09:16:52.029Z,46.51
2023-02-15T09:21:54.967Z,45.98
2023-02-15T09:26:59.229Z,48.20
2023-02-15T09:32:02.183Z,49.55
2023-02-15T09:37:05.106Z,49.98
2023-02-15T09:42:18.923Z,50.82
2023-02-15T09:47:31.697Z,50.91
2023-02-15T09:52:43.862Z,51.24
2023-02-15T09:57:53.706Z,50.87
2023-02-15T10:03:14.216Z,51.00
2023-02-15T10:08:28.685Z,50.85
2023-02-15T10:13:38.895Z,50.51
2023-02-15T10:18:54.128Z,51.03
2023-02-15T10:24:06.756Z,50.22
2023-02-15T10:29:12.424Z,50.00
2023-02-15T10:34:18.035Z,49.91
2023-02-15T10:39:24.097Z,50.01
2023-02-15T10:44:36.659Z,49.28
2023-02-15T10:49:49.730Z,48.49
2023-02-15T10:54:59.290Z,48.19
2023-02-15T11:00:12.158Z,46.75
2023-02-15T11:05:27.391Z,46.07
2023-02-15T11:10:32.648Z,45.21
2023-02-15T11:15:38.931Z,43.64
2023-02-15T11:20:46.444Z,40.14
2023-02-15T11:25:54.640Z,38.42
2023-02-15T11:31:01.640Z,37.19
2023-02-15T11:36:08.914Z,35.80
2023-02-15T11:41:13.999Z,35.08
2023-02-15T11:46:20.915Z,35.03
2023-02-15T11:51:26.104Z,33.96
2023-02-15T11:56:31.305Z,33.46
2023-02-15T12:01:41.484Z,33.86
2023-02-15T12:06:48.728Z,33.31
2023-02-15T12:11:52.297Z,32.36
2023-02-15T12:16:57.727Z,32.51
2023-02-15T12:22:01.790Z,31.41
2023-02-15T12:27:06.135Z,31.93
2023-02-15T12:32:14.092Z,30.93
2023-02-15T12:37:21.945Z,30.29
2023-02-15T12:42:25.488Z,30.40
2023-02-15T12:47:31.990Z,30.48
2023-02-15T12:52:34.827Z,30.10
2023-02-15T12:57:37.687Z,30.57
2023-02-15T13:02:46.398Z,30.31
2023-02-15T13:07:52.007Z,30.45
2023-02-15T13:12:55.844Z,30.39
2023-02-15T13:18:01.127Z,29.93
2023-02-15T13:23:06.404Z,29.86
2023-02-15T13:28:14.347Z,30.54
2023-02-15T13:33:22.760Z,30.50
2023-02-15T13:38:39.939Z,30.51
2023-02-15T13:43:49.013Z,29.92
2023-02-15T13:49:01.559Z,29.66
2023-02-15T13:54:14.044Z,30.44
2023-02-15T13:59:30.141Z,30.33
2023-02-15T14:04:53.741Z,30.34
2023-02-15T14:10:02.968Z,30.60
2023-02-15T14:15:16.029Z,30.27
2023-02-15T14:20:22.553Z,29.89
2023-02-15T14:25:30.104Z,29.19
2023-02-15T14:30:34.927Z,29.41
2023-02-15T14:35:39.386Z,29.41
2023-02-15T14:41:04.116Z,29.36
2023-02-15T14:46:12.254Z,29.34
2023-02-15T14:51:29.966Z,28.63
2023-02-15T14:56:34.328Z,28.97
2023-02-15T15:01:38.663Z,29.44
2023-02-15T15:06:43.141Z,29.73
2023-02-15T15:11:48.906Z,30.04
2023-02-15T15:16:53.369Z,29.64
2023-02-15T15:21:57.605Z,30.18
2023-02-15T15:27:15.309Z,30.22
2023-02-15T15:32:23.584Z,30.99
2023-02-15T15:37:39.199Z,30.81
2023-02-15T15:42:50.352Z,30.44
2023-02-15T15:48:06.986Z,30.36
2023-02-15T15:53:19.317Z,31.29
2023-02-15T15:58:22.219Z,31.26
2023-02-15T16:03:27.483Z,31.44
2023-02-15T16:08:32.154Z,31.62
2023-02-15T16:13:35.708Z,32.01
2023-02-15T16:18:43.528Z,32.07
2023-02-15T16:24:04.435Z,32.74
2023-02-15T16:29:15.670Z,32.76
2023-02-15T16:34:22.636Z,33.22
2023-02-15T16:39:26.825Z,33.51
2023-02-15T16:44:35.056Z,33.66
2023-02-15T16:49:42.250Z,33.62
2023-02-15T16:54:46.431Z,33.75
2023-02-15T16:59:51.615Z,33.86
2023-02-15T17:05:11.889Z,34.53
2023-02-15T17:10:34.162Z,34.67
2023-02-15T17:15:39.359Z,34.78
2023-02-15T17:20:46.566Z,35.29
2023-02-15T17:25:50.727Z,35.30
2023-02-15T17:30:55.933Z,35.95
2023-02-15T17:36:10.180Z,36.76
2023-02-15T17:41:14.359Z,37.21
2023-02-15T17:46:23.576Z,37.43
2023-02-15T17:51:29.753Z,40.40
2023-02-15T17:56:33.975Z,40.43
2023-02-15T18:01:56.230Z,41.05
2023-02-15T18:07:19.505Z,41.34
2023-02-15T18:12:23.552Z,42.05
2023-02-15T18:17:29.304Z,43.19
2023-02-15T18:22:33.625Z,42.07
2023-02-15T18:27:36.464Z,43.62
2023-02-15T18:32:40.320Z,43.08
2023-02-15T18:37:44.825Z,44.83
2023-02-15T18:42:49.108Z,44.54
2023-02-15T18:47:51.945Z,45.43
2023-02-15T18:52:56.334Z,46.45
2023-02-15T18:57:59.734Z,47.61
2023-02-15T19:03:03.388Z,48.46
2023-02-15T19:08:14.633Z,47.96
2023-02-15T19:13:18.895Z,47.84
2023-02-15T19:18:21.770Z,46.02
2023-02-15T19:23:26.832Z,47.45
2023-02-15T19:28:32.461Z,46.81
2023-02-15T19:33:35.791Z,47.83
2023-02-15T19:38:41.249Z,49.30
2023-02-15T19:43:44.133Z,50.49
2023-02-15T19:48:47.412Z,52.43
2023-02-15T19:53:52.700Z,52.65
2023-02-15T19:58:57.856Z,52.44
2023-02-15T20:04:00.713Z,51.59
2023-02-15T20:09:05.129Z,50.76
2023-02-15T20:14:12.327Z,52.54
2023-02-15T20:19:15.295Z,51.54
2023-02-15T20:24:21.156Z,51.31
2023-02-15T20:29:24.023Z,51.77
2023-02-15T20:34:26.857Z,51.28
2023-02-15T20:39:31.255Z,53.99
2023-02-15T20:44:35.322Z,52.58
2023-02-15T20:49:38.670Z,54.09
2023-02-15T20:54:43.300Z,52.79
2023-02-15T20:59:46.175Z,52.48
2023-02-15T21:04:49.077Z,52.87
2023-02-15T21:09:54.360Z,54.73
2023-02-15T21:14:57.318Z,54.69
2023-02-15T21:20:00.193Z,54.10
2023-02-15T21:25:04.512Z,54.49
2023-02-15T21:30:12.176Z,55.45
2023-02-15T21:35:15.498Z,54.98
2023-02-15T21:40:21.594Z,56.74
2023-02-15T21:45:41.774Z,57.86
2023-02-15T21:51:02.804Z,57.96
2023-02-15T21:56:08.003Z,58.19
2023-02-15T22:01:17.641Z,59.38
2023-02-15T22:06:20.536Z,61.53
2023-02-15T22:11:24.766Z,62.72
2023-02-15T22:16:27.678Z,61.75
2023-02-15T22:21:31.542Z,60.38
2023-02-15T22:26:36.079Z,61.78
2023-02-15T22:31:38.999Z,61.82
2023-02-15T22:36:41.928Z,61.23
2023-02-15T22:41:46.248Z,62.04
2023-02-15T22:46:49.103Z,62.69
2023-02-15T22:51:52.312Z,63.01
2023-02-15T22:56:56.658Z,63.56
2023-02-15T23:01:59.583Z,62.71
2023-02-15T23:07:02.416Z,64.36
2023-02-15T23:12:14.194Z,63.79
2023-02-15T23:17:17.041Z,66.13
2023-02-15T23:22:20.667Z,65.56
2023-02-15T23:27:42.467Z,64.84
2023-02-15T23:32:45.413Z,65.12
2023-02-15T23:37:48.543Z,65.01
2023-02-15T23:42:52.893Z,65.71
2023-02-15T23:48:13.435Z,66.69
2023-02-15T23:53:16.341Z,66.93
2023-02-15T23:58:21.891Z,64.98
